Time;durP1;ratioP1;P1;durP2;ratioP2;P2;SDS_P1;SDS_P2;PMS_P1;PMS_P2;Temp;Humidity;BMP_temperature;BMP_pressure;BME280_temperature;BME280_humidity;BME280_pressure;Samples;Min_cycle;Max_cycle;Signal;HPM_P1;HPM_P2
2023/06/24 00:04:49;;;;;;;12.80;8.00;;;;;;;;;;13174772;22;20886;-86
2023/06/24 00:09:52;;;;;;;11.63;8.07;;;;;;;;;;13174197;22;20731;-85
2023/06/24 00:14:55;;;;;;;12.43;7.72;;;;;;;;;;13174636;22;20362;-86
2023/06/24 00:19:57;;;;;;;11.03;7.10;;;;;;;;;;13196743;22;20373;-86
2023/06/24 00:25:01;;;;;;;11.98;6.82;;;;;;;;;;13195947;22;20689;-86
2023/06/24 00:30:04;;;;;;;11.32;7.40;;;;;;;;;;13196252;22;20354;-86
2023/06/24 00:35:07;;;;;;;10.55;7.32;;;;;;;;;;13173993;22;20752;-86
2023/06/24 00:40:14;;;;;;;11.75;7.00;;;;;;;;;;13173202;22;20458;-85
2023/06/24 00:45:17;;;;;;;10.23;6.93;;;;;;;;;;13175545;22;20380;-86
2023/06/24 00:50:20;;;;;;;12.97;6.57;;;;;;;;;;13173330;22;20913;-86
2023/06/24 00:55:24;;;;;;;14.65;7.40;;;;;;;;;;13172913;22;20361;-86
2023/06/24 01:00:27;;;;;;;11.10;6.47;;;;;;;;;;13174519;22;20395;-86
2023/06/24 01:05:29;;;;;;;11.18;7.20;;;;;;;;;;13173260;22;20422;-86
2023/06/24 01:10:33;;;;;;;11.90;7.63;;;;;;;;;;13174185;22;20362;-84
2023/06/24 01:15:36;;;;;;;13.40;8.23;;;;;;;;;;13173812;22;20415;-86
2023/06/24 01:20:48;;;;;;;12.38;8.68;;;;;;;;;;13173291;22;20419;-86
2023/06/24 01:26:10;;;;;;;15.73;10.10;;;;;;;;;;13174283;22;20394;-85
2023/06/24 01:31:46;;;;;;;16.92;9.55;;;;;;;;;;13173631;22;20361;-86
2023/06/24 01:36:55;;;;;;;15.60;10.20;;;;;;;;;;13173623;22;20353;-85
2023/06/24 01:42:03;;;;;;;15.37;9.70;;;;;;;;;;13195674;22;20369;-85
2023/06/24 01:47:09;;;;;;;15.60;10.17;;;;;;;;;;13178424;22;20481;-86
2023/06/24 01:52:12;;;;;;;13.77;9.90;;;;;;;;;;13172162;22;20361;-86
2023/06/24 01:57:17;;;;;;;14.15;9.65;;;;;;;;;;13199686;22;20670;-86
2023/06/24 02:02:22;;;;;;;15.35;9.52;;;;;;;;;;13176697;22;20438;-85
2023/06/24 02:07:27;;;;;;;15.52;9.68;;;;;;;;;;13177821;22;20362;-85
2023/06/24 02:12:31;;;;;;;14.43;9.63;;;;;;;;;;13177806;22;20362;-86
2023/06/24 02:17:35;;;;;;;12.87;8.73;;;;;;;;;;13177159;22;20357;-86
2023/06/24 02:22:40;;;;;;;13.50;9.17;;;;;;;;;;13176907;22;20407;-86
2023/06/24 02:27:43;;;;;;;11.57;8.50;;;;;;;;;;13176980;22;20365;-85
2023/06/24 02:32:47;;;;;;;12.77;8.60;;;;;;;;;;13198806;22;20356;-86
2023/06/24 02:37:49;;;;;;;13.50;9.18;;;;;;;;;;13177331;22;20358;-85
2023/06/24 02:42:51;;;;;;;14.77;9.50;;;;;;;;;;13176328;22;20437;-86
2023/06/24 02:47:56;;;;;;;11.70;8.48;;;;;;;;;;13177225;22;20991;-86
2023/06/24 02:52:59;;;;;;;15.43;8.52;;;;;;;;;;13175000;22;20361;-86
2023/06/24 02:58:03;;;;;;;13.13;8.90;;;;;;;;;;13176558;22;20407;-86
2023/06/24 03:03:08;;;;;;;15.65;9.18;;;;;;;;;;13175822;22;20403;-85
2023/06/24 03:08:11;;;;;;;12.47;8.63;;;;;;;;;;13176060;22;20426;-84
2023/06/24 03:13:13;;;;;;;14.17;9.03;;;;;;;;;;13175706;22;20353;-86
2023/06/24 03:18:17;;;;;;;12.95;8.38;;;;;;;;;;13176353;22;20350;-86
2023/06/24 03:23:20;;;;;;;12.10;8.83;;;;;;;;;;13175386;22;20704;-86
2023/06/24 03:28:22;;;;;;;12.40;8.07;;;;;;;;;;13175673;22;20392;-86
2023/06/24 03:33:27;;;;;;;14.07;8.03;;;;;;;;;;13175567;22;20414;-85
2023/06/24 03:38:29;;;;;;;14.23;7.00;;;;;;;;;;13175535;22;20848;-86
2023/06/24 03:43:32;;;;;;;10.13;6.83;;;;;;;;;;13197696;22;20685;-85
2023/06/24 03:48:36;;;;;;;11.85;7.40;;;;;;;;;;13183505;22;20439;-86
2023/06/24 03:53:38;;;;;;;10.30;6.60;;;;;;;;;;13174356;22;20419;-85
2023/06/24 03:58:43;;;;;;;8.57;6.63;;;;;;;;;;13174411;22;21387;-86
2023/06/24 04:03:47;;;;;;;9.70;6.53;;;;;;;;;;13174522;22;20377;-86
2023/06/24 04:08:51;;;;;;;12.40;6.55;;;;;;;;;;13174577;22;20358;-85
2023/06/24 04:13:54;;;;;;;10.83;6.37;;;;;;;;;;13174689;22;20833;-85
2023/06/24 04:18:58;;;;;;;9.35;5.43;;;;;;;;;;13174029;22;20426;-86
2023/06/24 04:24:00;;;;;;;7.97;4.95;;;;;;;;;;13175612;22;20377;-85
2023/06/24 04:29:02;;;;;;;7.78;4.63;;;;;;;;;;13174980;22;20829;-85
2023/06/24 04:34:06;;;;;;;9.05;5.05;;;;;;;;;;13174111;22;20391;-85
2023/06/24 04:39:09;;;;;;;6.53;4.53;;;;;;;;;;13173331;22;20418;-85
2023/06/24 04:44:11;;;;;;;7.40;4.63;;;;;;;;;;13174128;22;20377;-85
2023/06/24 04:49:15;;;;;;;6.87;4.37;;;;;;;;;;13190719;22;20361;-85
2023/06/24 04:54:17;;;;;;;10.50;4.90;;;;;;;;;;13173861;22;20365;-85
2023/06/24 04:59:19;;;;;;;6.40;4.35;;;;;;;;;;13195517;22;20361;-86
2023/06/24 05:04:23;;;;;;;9.73;4.75;;;;;;;;;;13172915;22;20385;-85
2023/06/24 05:09:25;;;;;;;7.78;4.28;;;;;;;;;;13173618;22;20426;-85
2023/06/24 05:14:28;;;;;;;6.28;4.00;;;;;;;;;;13173935;22;20354;-86
2023/06/24 05:19:32;;;;;;;6.15;4.07;;;;;;;;;;13173619;22;20426;-86
2023/06/24 05:24:34;;;;;;;7.10;4.38;;;;;;;;;;13175906;22;20845;-86
2023/06/24 05:29:37;;;;;;;7.53;4.57;;;;;;;;;;13174401;22;20418;-86
2023/06/24 05:34:41;;;;;;;6.57;3.90;;;;;;;;;;13173759;22;20400;-85
2023/06/24 05:39:43;;;;;;;6.13;3.80;;;;;;;;;;13173280;22;20449;-86
2023/06/24 05:44:45;;;;;;;6.10;3.90;;;;;;;;;;13173043;22;20369;-86
2023/06/24 05:49:49;;;;;;;4.88;3.95;;;;;;;;;;13173089;22;20422;-85
2023/06/24 05:54:51;;;;;;;5.18;3.53;;;;;;;;;;13172714;22;20358;-86
2023/06/24 05:59:53;;;;;;;6.70;3.75;;;;;;;;;;13172673;22;20426;-85
2023/06/24 06:04:57;;;;;;;8.23;4.20;;;;;;;;;;13172637;22;20377;-86
2023/06/24 06:10:00;;;;;;;5.22;3.63;;;;;;;;;;13172644;22;20357;-86
2023/06/24 06:15:03;;;;;;;7.60;3.40;;;;;;;;;;13173235;22;20361;-86
2023/06/24 06:20:08;;;;;;;5.82;3.97;;;;;;;;;;13172866;22;20415;-86
2023/06/24 06:25:10;;;;;;;4.87;2.70;;;;;;;;;;13172898;22;20378;-86
2023/06/24 06:30:14;;;;;;;3.88;2.28;;;;;;;;;;13175111;22;20358;-86
2023/06/24 06:35:18;;;;;;;5.35;2.70;;;;;;;;;;13198893;22;20794;-86
2023/06/24 06:40:21;;;;;;;4.17;2.63;;;;;;;;;;13176755;22;20805;-86
2023/06/24 06:45:23;;;;;;;5.18;2.80;;;;;;;;;;13177267;22;20525;-86
2023/06/24 06:50:27;;;;;;;4.72;2.60;;;;;;;;;;13176067;22;20354;-86
2023/06/24 06:55:30;;;;;;;5.80;3.10;;;;;;;;;;13175684;22;20825;-85
2023/06/24 07:00:32;;;;;;;3.92;2.42;;;;;;;;;;13175627;22;20350;-85
2023/06/24 07:05:36;;;;;;;3.13;2.35;;;;;;;;;;13176747;22;20374;-86
2023/06/24 07:10:38;;;;;;;4.45;2.47;;;;;;;;;;13178647;22;20458;-88
2023/06/24 07:15:41;;;;;;;3.92;2.50;;;;;;;;;;13176356;22;20682;-86
2023/06/24 07:20:44;;;;;;;4.00;2.40;;;;;;;;;;13176127;22;20396;-86
2023/06/24 07:25:47;;;;;;;4.40;2.60;;;;;;;;;;13176207;22;20431;-86
2023/06/24 07:30:49;;;;;;;3.67;2.75;;;;;;;;;;13175425;22;20361;-86
2023/06/24 07:35:53;;;;;;;4.37;2.47;;;;;;;;;;13175938;22;20361;-86
2023/06/24 07:40:55;;;;;;;2.83;2.17;;;;;;;;;;13174610;22;20361;-85
2023/06/24 07:45:58;;;;;;;4.45;2.25;;;;;;;;;;13176500;22;20374;-86
2023/06/24 07:51:01;;;;;;;4.07;2.33;;;;;;;;;;13175066;22;20362;-86
2023/06/24 07:56:04;;;;;;;3.40;2.03;;;;;;;;;;13175361;22;20419;-88
2023/06/24 08:01:07;;;;;;;3.38;2.00;;;;;;;;;;13175371;22;20414;-86
2023/06/24 08:06:11;;;;;;;4.30;2.20;;;;;;;;;;13196992;22;20514;-86
2023/06/24 08:11:13;;;;;;;3.03;1.88;;;;;;;;;;13174716;22;20434;-86
2023/06/24 08:16:18;;;;;;;4.27;2.23;;;;;;;;;;13197039;22;20362;-86
2023/06/24 08:21:22;;;;;;;3.03;1.87;;;;;;;;;;13174288;22;20365;-86
2023/06/24 08:26:24;;;;;;;4.50;2.30;;;;;;;;;;13174807;22;20432;-86
2023/06/24 08:31:27;;;;;;;3.42;2.00;;;;;;;;;;13173761;22;20354;-86
2023/06/24 08:36:31;;;;;;;3.58;2.08;;;;;;;;;;13197434;22;20369;-85
2023/06/24 08:41:33;;;;;;;2.67;1.80;;;;;;;;;;13173878;22;20361;-87
2023/06/24 08:46:36;;;;;;;2.50;1.60;;;;;;;;;;13173879;22;20374;-86
2023/06/24 08:51:42;;;;;;;3.78;1.60;;;;;;;;;;13197151;22;20395;-86
2023/06/24 08:56:45;;;;;;;2.63;1.70;;;;;;;;;;13174522;22;20361;-86
2023/06/24 09:01:48;;;;;;;4.80;2.13;;;;;;;;;;13173997;22;20353;-86
2023/06/24 09:06:52;;;;;;;2.40;2.00;;;;;;;;;;13173769;22;20365;-86
2023/06/24 09:11:55;;;;;;;2.83;2.10;;;;;;;;;;13173954;22;20365;-86
2023/06/24 09:17:00;;;;;;;7.55;2.40;;;;;;;;;;13174236;22;20694;-86
2023/06/24 09:22:05;;;;;;;3.03;1.77;;;;;;;;;;13176445;22;20391;-86
2023/06/24 09:27:08;;;;;;;2.92;1.90;;;;;;;;;;13175692;22;20445;-86
2023/06/24 09:32:11;;;;;;;2.10;1.70;;;;;;;;;;13173181;22;20655;-87
2023/06/24 09:37:22;;;;;;;3.73;1.67;;;;;;;;;;13173601;22;20353;-87
2023/06/24 09:42:24;;;;;;;2.58;1.40;;;;;;;;;;13172231;22;20419;-87
2023/06/24 09:47:28;;;;;;;4.00;1.67;;;;;;;;;;13174462;22;20358;-86
2023/06/24 09:52:34;;;;;;;1.60;1.35;;;;;;;;;;13194788;22;20828;-86
2023/06/24 09:57:37;;;;;;;2.45;1.48;;;;;;;;;;13174079;22;20422;-86
2023/06/24 10:02:39;;;;;;;5.60;1.80;;;;;;;;;;13174970;22;20357;-87
2023/06/24 10:07:44;;;;;;;2.00;1.50;;;;;;;;;;13177544;22;20894;-86
2023/06/24 10:12:46;;;;;;;2.70;1.60;;;;;;;;;;13177890;22;20478;-87
2023/06/24 10:17:49;;;;;;;1.70;1.53;;;;;;;;;;13200084;22;20402;-87
2023/06/24 10:22:53;;;;;;;2.90;1.50;;;;;;;;;;13177195;22;20358;-87
2023/06/24 10:27:55;;;;;;;2.50;1.40;;;;;;;;;;13177439;22;20354;-86
2023/06/24 10:32:58;;;;;;;1.63;1.40;;;;;;;;;;13176528;22;20358;-86
2023/06/24 10:38:02;;;;;;;1.70;1.33;;;;;;;;;;13177898;22;20357;-87
2023/06/24 10:43:26;;;;;;;2.23;1.20;;;;;;;;;;13176475;22;20370;-86
2023/06/24 10:48:28;;;;;;;2.30;1.50;;;;;;;;;;13177575;22;20362;-86
2023/06/24 10:53:32;;;;;;;2.00;1.60;;;;;;;;;;13198116;22;20395;-86
2023/06/24 10:58:35;;;;;;;2.43;1.50;;;;;;;;;;13176159;22;20901;-86
2023/06/24 11:03:40;;;;;;;1.80;1.40;;;;;;;;;;13198769;22;20860;-87
2023/06/24 11:08:47;;;;;;;2.63;1.55;;;;;;;;;;13176520;22;20361;-87
2023/06/24 11:13:50;;;;;;;1.75;1.55;;;;;;;;;;13197985;22;20350;-86
2023/06/24 11:18:52;;;;;;;2.55;1.30;;;;;;;;;;13176431;22;20425;-86
2023/06/24 11:24:01;;;;;;;1.52;1.40;;;;;;;;;;13176330;22;20693;-86
2023/06/24 11:29:11;;;;;;;2.43;1.70;;;;;;;;;;13176847;22;20361;-86
2023/06/24 11:34:13;;;;;;;2.88;1.70;;;;;;;;;;13176195;22;20361;-86
2023/06/24 11:39:23;;;;;;;5.65;2.58;;;;;;;;;;13176091;22;20362;-86
2023/06/24 11:44:26;;;;;;;2.67;1.52;;;;;;;;;;13175821;22;20422;-86
2023/06/24 11:49:28;;;;;;;1.85;1.33;;;;;;;;;;13174630;22;20412;-87
2023/06/24 11:54:42;;;;;;;3.47;1.35;;;;;;;;;;13174841;22;20670;-86
2023/06/24 11:59:44;;;;;;;2.53;1.65;;;;;;;;;;13176160;22;20418;-86
2023/06/24 12:04:47;;;;;;;2.03;1.65;;;;;;;;;;13175616;22;20434;-86
2023/06/24 12:09:50;;;;;;;2.20;1.50;;;;;;;;;;13197004;22;20671;-86
2023/06/24 12:14:54;;;;;;;1.38;1.27;;;;;;;;;;13197492;22;20450;-86
2023/06/24 12:19:56;;;;;;;1.40;1.20;;;;;;;;;;13175597;22;20362;-87
2023/06/24 12:25:00;;;;;;;1.90;1.10;;;;;;;;;;13174985;22;20901;-87
2023/06/24 12:30:02;;;;;;;1.10;1.00;;;;;;;;;;13196517;22;20361;-86
2023/06/24 12:35:06;;;;;;;2.45;1.13;;;;;;;;;;13174240;22;20430;-86
2023/06/24 12:40:10;;;;;;;1.35;1.23;;;;;;;;;;13173911;22;20921;-87
2023/06/24 12:45:13;;;;;;;5.85;1.30;;;;;;;;;;13195834;22;20373;-87
2023/06/24 12:50:15;;;;;;;1.40;1.00;;;;;;;;;;13174385;22;20353;-86
2023/06/24 12:55:19;;;;;;;1.13;1.00;;;;;;;;;;13173273;22;20357;-87
2023/06/24 13:00:22;;;;;;;1.27;1.10;;;;;;;;;;13173552;22;20842;-86
2023/06/24 13:05:24;;;;;;;1.27;1.00;;;;;;;;;;13196211;22;20373;-87
2023/06/24 13:10:28;;;;;;;3.60;1.00;;;;;;;;;;13195498;22;20357;-87
2023/06/24 13:15:31;;;;;;;2.20;1.00;;;;;;;;;;13173605;22;20354;-86
2023/06/24 13:20:33;;;;;;;1.45;1.10;;;;;;;;;;13172939;22;20357;-87
2023/06/24 13:25:37;;;;;;;1.65;1.10;;;;;;;;;;13195582;22;20829;-86
2023/06/24 13:30:40;;;;;;;3.87;1.03;;;;;;;;;;13173935;22;20374;-86
2023/06/24 13:35:42;;;;;;;2.88;1.10;;;;;;;;;;13172504;22;20362;-87
2023/06/24 13:40:46;;;;;;;2.55;1.10;;;;;;;;;;13174769;22;20361;-87
2023/06/24 13:45:48;;;;;;;2.03;1.10;;;;;;;;;;13177059;22;20385;-86
2023/06/24 13:50:51;;;;;;;232.03;14.77;;;;;;;;;;13199433;22;20410;-86
2023/06/24 13:55:55;;;;;;;1.50;1.10;;;;;;;;;;13177712;22;20362;-86
2023/06/24 14:00:57;;;;;;;1.50;1.10;;;;;;;;;;13177840;22;20357;-86
2023/06/24 14:06:01;;;;;;;2.45;0.90;;;;;;;;;;13178283;22;20833;-86
2023/06/24 14:11:04;;;;;;;2.17;1.00;;;;;;;;;;13177398;22;20358;-86
2023/06/24 14:16:07;;;;;;;14.77;1.50;;;;;;;;;;13199238;22;20391;-86
2023/06/24 14:21:09;;;;;;;1.27;0.90;;;;;;;;;;13176534;22;20678;-86
2023/06/24 14:26:13;;;;;;;1.50;1.07;;;;;;;;;;13177154;22;20430;-86
2023/06/24 14:31:15;;;;;;;1.90;1.00;;;;;;;;;;13176714;22;20414;-86
2023/06/24 14:36:18;;;;;;;3.13;1.10;;;;;;;;;;13175992;22;20358;-86
2023/06/24 14:41:21;;;;;;;1.17;0.85;;;;;;;;;;13174898;22;20365;-86
2023/06/24 14:46:23;;;;;;;0.90;0.80;;;;;;;;;;13176274;22;20695;-86
2023/06/24 14:51:26;;;;;;;0.75;0.68;;;;;;;;;;13174371;22;20357;-86
2023/06/24 14:56:30;;;;;;;2.85;0.70;;;;;;;;;;13178138;22;20825;-86
2023/06/24 15:01:32;;;;;;;0.70;0.70;;;;;;;;;;13198926;22;20434;-87
2023/06/24 15:06:34;;;;;;;1.10;1.00;;;;;;;;;;13176005;22;20377;-86
2023/06/24 15:11:38;;;;;;;1.30;0.82;;;;;;;;;;13176605;22;20430;-86
2023/06/24 15:16:40;;;;;;;0.80;0.80;;;;;;;;;;13176172;22;20350;-86
2023/06/24 15:21:43;;;;;;;1.00;0.80;;;;;;;;;;13174674;22;20357;-87
2023/06/24 15:26:46;;;;;;;2.80;0.70;;;;;;;;;;13175739;22;20853;-87
2023/06/24 15:31:49;;;;;;;1.00;0.80;;;;;;;;;;13175097;22;20399;-86
2023/06/24 15:36:51;;;;;;;0.77;0.70;;;;;;;;;;13174764;22;20828;-87
2023/06/24 15:41:55;;;;;;;2.03;0.85;;;;;;;;;;13174637;22;20353;-83
2023/06/24 15:46:57;;;;;;;2.00;0.90;;;;;;;;;;13176246;22;20377;-85
2023/06/24 15:51:59;;;;;;;0.88;0.80;;;;;;;;;;13196775;22;20826;-86
2023/06/24 15:57:03;;;;;;;1.40;0.80;;;;;;;;;;13174244;22;20795;-83
2023/06/24 16:02:06;;;;;;;1.75;0.95;;;;;;;;;;13146248;22;20383;-84
2023/06/24 16:07:09;;;;;;;1.20;0.90;;;;;;;;;;13174020;22;20910;-84
2023/06/24 16:12:12;;;;;;;2.07;0.90;;;;;;;;;;13173872;22;20362;-84
2023/06/24 16:17:15;;;;;;;1.10;1.00;;;;;;;;;;13173628;22;20430;-84
2023/06/24 16:22:17;;;;;;;1.77;1.10;;;;;;;;;;13172886;22;20358;-87
2023/06/24 16:27:21;;;;;;;1.05;0.90;;;;;;;;;;13174370;22;20374;-87
2023/06/24 16:32:23;;;;;;;1.20;1.10;;;;;;;;;;13174739;22;20358;-87
2023/06/24 16:37:25;;;;;;;1.37;1.20;;;;;;;;;;13173173;22;20353;-87
2023/06/24 16:42:29;;;;;;;2.10;1.10;;;;;;;;;;13176312;22;20365;-86
2023/06/24 16:47:32;;;;;;;2.33;1.30;;;;;;;;;;13190258;22;20451;-86
2023/06/24 16:52:34;;;;;;;4.25;1.52;;;;;;;;;;13173606;22;20418;-87
2023/06/24 16:57:38;;;;;;;1.52;1.00;;;;;;;;;;13174181;22;20686;-87
2023/06/24 17:02:41;;;;;;;1.98;1.20;;;;;;;;;;13174370;22;20362;-87
2023/06/24 17:07:43;;;;;;;1.70;1.08;;;;;;;;;;13173216;22;20406;-86
2023/06/24 17:12:47;;;;;;;2.47;1.20;;;;;;;;;;13173645;22;20894;-87
2023/06/24 17:17:49;;;;;;;3.17;1.03;;;;;;;;;;13195902;22;20391;-87
2023/06/24 17:22:51;;;;;;;2.60;1.25;;;;;;;;;;13173226;22;20354;-86
2023/06/24 17:27:55;;;;;;;1.58;1.10;;;;;;;;;;13174407;22;20373;-87
2023/06/24 17:32:57;;;;;;;1.73;1.05;;;;;;;;;;13173348;22;20358;-86
2023/06/24 17:38:00;;;;;;;1.52;0.98;;;;;;;;;;13195209;22;20883;-87
2023/06/24 17:43:04;;;;;;;2.40;0.90;;;;;;;;;;13172882;22;20365;-87
2023/06/24 17:48:06;;;;;;;1.60;0.90;;;;;;;;;;13173250;22;20427;-86
2023/06/24 17:53:08;;;;;;;1.77;1.00;;;;;;;;;;13172337;22;20655;-86
2023/06/24 17:58:12;;;;;;;3.45;1.20;;;;;;;;;;13173638;22;20619;-86
2023/06/24 18:03:14;;;;;;;1.10;0.83;;;;;;;;;;13173718;22;20362;-86
2023/06/24 18:08:16;;;;;;;1.67;0.90;;;;;;;;;;13172748;22;20366;-86
2023/06/24 18:13:20;;;;;;;1.67;0.80;;;;;;;;;;13173050;22;20830;-86
2023/06/24 18:18:23;;;;;;;1.00;0.65;;;;;;;;;;13173236;22;20822;-86
2023/06/24 18:23:25;;;;;;;0.95;0.90;;;;;;;;;;13173026;22;20395;-86
2023/06/24 18:28:29;;;;;;;1.70;0.67;;;;;;;;;;13177018;22;20369;-86
2023/06/24 18:33:31;;;;;;;1.00;0.50;;;;;;;;;;13176930;22;20387;-86
2023/06/24 18:38:33;;;;;;;3.10;0.52;;;;;;;;;;13176610;22;20757;-86
2023/06/24 18:43:37;;;;;;;1.13;0.50;;;;;;;;;;13176898;22;20357;-86
2023/06/24 18:48:40;;;;;;;1.17;0.80;;;;;;;;;;13177354;22;20377;-87
2023/06/24 18:53:42;;;;;;;1.73;0.70;;;;;;;;;;13176384;22;20410;-86
2023/06/24 18:58:46;;;;;;;3.13;1.00;;;;;;;;;;13176251;22;20748;-86
2023/06/24 19:03:48;;;;;;;2.42;1.00;;;;;;;;;;13176720;22;20420;-86
2023/06/24 19:08:52;;;;;;;1.55;0.65;;;;;;;;;;13175373;22;20374;-86
2023/06/24 19:13:56;;;;;;;1.30;0.50;;;;;;;;;;13176831;22;20383;-86
2023/06/24 19:18:59;;;;;;;1.47;0.70;;;;;;;;;;13175459;22;20825;-85
2023/06/24 19:24:01;;;;;;;0.90;0.67;;;;;;;;;;13175437;22;20349;-86
2023/06/24 19:29:05;;;;;;;1.38;0.55;;;;;;;;;;13197412;22;20770;-86
2023/06/24 19:34:08;;;;;;;1.90;0.60;;;;;;;;;;13176274;22;20370;-86
2023/06/24 19:39:10;;;;;;;1.40;0.70;;;;;;;;;;13174010;22;20357;-86
2023/06/24 19:44:14;;;;;;;1.90;0.73;;;;;;;;;;13176621;22;20877;-86
2023/06/24 19:49:17;;;;;;;1.00;0.65;;;;;;;;;;13174538;22;20446;-86
2023/06/24 19:54:19;;;;;;;0.53;0.47;;;;;;;;;;13175026;22;20424;-85
2023/06/24 19:59:23;;;;;;;0.80;0.80;;;;;;;;;;13177616;22;20751;-85
2023/06/24 20:04:25;;;;;;;0.80;0.55;;;;;;;;;;13174879;22;20426;-86
2023/06/24 20:09:27;;;;;;;0.95;0.70;;;;;;;;;;13174894;22;20434;-86
2023/06/24 20:14:31;;;;;;;2.00;0.70;;;;;;;;;;13174237;22;20353;-86
2023/06/24 20:19:34;;;;;;;1.10;0.60;;;;;;;;;;13174174;22;20411;-85
2023/06/24 20:24:36;;;;;;;0.50;0.50;;;;;;;;;;13173591;22;20362;-85
2023/06/24 20:29:40;;;;;;;1.00;0.73;;;;;;;;;;13173684;22;20434;-86
2023/06/24 20:34:42;;;;;;;2.30;0.60;;;;;;;;;;13196059;22;20438;-86
2023/06/24 20:39:45;;;;;;;0.80;0.50;;;;;;;;;;13173670;22;20353;-86
2023/06/24 20:44:49;;;;;;;1.50;0.70;;;;;;;;;;13174549;22;20358;-86
2023/06/24 20:49:52;;;;;;;2.40;1.00;;;;;;;;;;13173474;22;20706;-86
2023/06/24 20:54:54;;;;;;;1.33;0.85;;;;;;;;;;13173651;22;20732;-86
2023/06/24 20:59:58;;;;;;;1.40;1.05;;;;;;;;;;13174074;22;20357;-86
2023/06/24 21:05:00;;;;;;;2.15;0.70;;;;;;;;;;13174052;22;20357;-86
2023/06/24 21:10:02;;;;;;;1.27;0.85;;;;;;;;;;13172843;22;20381;-86
2023/06/24 21:15:07;;;;;;;2.27;0.80;;;;;;;;;;13173587;22;20403;-86
2023/06/24 21:20:11;;;;;;;2.08;0.70;;;;;;;;;;13173322;22;20357;-86
2023/06/24 21:25:13;;;;;;;2.03;0.80;;;;;;;;;;13167709;22;20365;-86
2023/06/24 21:30:17;;;;;;;1.95;0.85;;;;;;;;;;13196425;22;20373;-86
2023/06/24 21:35:19;;;;;;;1.00;0.80;;;;;;;;;;13174173;22;20410;-86
2023/06/24 21:40:21;;;;;;;2.28;0.70;;;;;;;;;;13195431;22;20365;-86
2023/06/24 21:45:25;;;;;;;1.90;0.88;;;;;;;;;;13172841;22;20879;-86
2023/06/24 21:50:27;;;;;;;1.23;0.63;;;;;;;;;;13173615;22;20381;-86
2023/06/24 21:55:30;;;;;;;2.37;0.80;;;;;;;;;;13175094;22;20825;-86
2023/06/24 22:00:34;;;;;;;4.75;0.80;;;;;;;;;;13175010;22;20353;-86
2023/06/24 22:05:36;;;;;;;1.92;0.80;;;;;;;;;;13178039;22;20419;-86
2023/06/24 22:10:38;;;;;;;2.90;0.70;;;;;;;;;;13196863;22;20369;-86
2023/06/24 22:15:42;;;;;;;1.77;0.80;;;;;;;;;;13199515;22;20365;-86
2023/06/24 22:20:44;;;;;;;0.82;0.60;;;;;;;;;;13199186;22;20362;-86
2023/06/24 22:25:47;;;;;;;2.65;0.70;;;;;;;;;;13177490;22;20354;-86
2023/06/24 22:30:50;;;;;;;1.60;0.70;;;;;;;;;;13199008;22;20377;-86
2023/06/24 22:35:53;;;;;;;1.20;0.50;;;;;;;;;;13176379;22;20458;-86
2023/06/24 22:40:55;;;;;;;1.50;0.50;;;;;;;;;;13176428;22;20493;-86
2023/06/24 22:45:59;;;;;;;2.80;0.70;;;;;;;;;;13199134;22;20363;-86
2023/06/24 22:51:01;;;;;;;1.50;0.80;;;;;;;;;;13198548;22;20536;-86
2023/06/24 22:56:03;;;;;;;1.63;0.80;;;;;;;;;;13176202;22;20834;-85
2023/06/24 23:01:07;;;;;;;1.13;0.50;;;;;;;;;;13177763;22;20362;-86
2023/06/24 23:06:10;;;;;;;1.58;0.75;;;;;;;;;;13176390;22;20358;-86
2023/06/24 23:11:13;;;;;;;1.83;0.60;;;;;;;;;;13175580;22;20381;-86
2023/06/24 23:16:18;;;;;;;1.50;0.60;;;;;;;;;;13176851;22;20814;-86
2023/06/24 23:21:21;;;;;;;1.70;0.63;;;;;;;;;;13175905;22;20419;-86
2023/06/24 23:26:27;;;;;;;0.88;0.63;;;;;;;;;;13176360;22;20399;-86
2023/06/24 23:31:38;;;;;;;3.28;0.80;;;;;;;;;;13174207;22;20833;-86
2023/06/24 23:36:41;;;;;;;1.20;0.70;;;;;;;;;;13170856;22;20353;-86
2023/06/24 23:41:44;;;;;;;0.93;0.60;;;;;;;;;;13170524;22;20385;-86
2023/06/24 23:46:48;;;;;;;1.15;0.55;;;;;;;;;;13169840;22;20836;-86
2023/06/24 23:51:50;;;;;;;0.82;0.70;;;;;;;;;;13195941;22;20522;-86
2023/06/24 23:56:54;;;;;;;1.10;0.55;;;;;;;;;;13174374;22;20411;-86
